Chihuahua University, Mexico

6:04 PM MDT on August 04, 2015 (GMT -0600)
Gen Div P A Roberto Fierro | | Change Station
CLOSE
Current Station
Airport
Location: Chihuahua,
Elevation: 4462 ft
Nearby Weather Stations

Elev 4462 ft 28.70 °N, 105.96 °W | Updated 15 minutes ago

Mostly Cloudy
Mostly Cloudy
91 °F
Feels Like 89 °F
N
8
Wind Variable Wind from North

Today
High -- | Low -- °F
--% Chance of Precip.
Yesterday
High -- | Low -- °F
Precip. -- in
6:26 AM 7:52 PM
Waning Gibbous, 73% visible
Pressure 29.69 in
Visibility 10.0 miles
Clouds Scattered Clouds 3000 ft
Scattered Clouds 8000 ft
Mostly Cloudy 20000 ft
Heat Index 89 °F
Dew Point 54 °F
Humidity 28%
Rainfall 1.61 in
Snow Depth Not available.
UV 1 out of 12
Pollen Not available.
Air Quality Not available.
Flu Activity Not available.
METAR MMCU 042349Z 35007KT 10SM SCT030CB SCT080 BKN200 33/12 A3005 RMK SLP054 57017 927 8/363 MSGTX MMMY

More Conditions Fewer Conditions

Pressure 29.69 in
Visibility 10.0 miles
Clouds Scattered Clouds 3000 ft
Scattered Clouds 8000 ft
Mostly Cloudy 20000 ft
Heat Index 89 °F
Dew Point 54 °F
Humidity 28%
Rainfall 1.61 in
Snow Depth Not available.
UV 1 out of 12
Pollen Not available.
Air Quality Not available.
Flu Activity Not available.
METAR MMCU 042349Z 35007KT 10SM SCT030CB SCT080 BKN200 33/12 A3005 RMK SLP054 57017 927 8/363 MSGTX MMMY

More Conditions Fewer Conditions

10-Day Weather Forecast

×

Almanac

Astronomy

Aug. 04, 2015 Rise Set
Actual Time
Civil Twilight
Nautical Twilight
Astronomical Twilight
Moon
Length of Visible Light
Length of Day
Tomorrow will be .
, % of the Moon is Illuminated

Today's Extremes

Country Highs Country Lows

Community

WunderPhotos

Upload Photos

1,844,024 photos uploaded!

WunderBlogs® & News

Nearby

Air Quality

  Air Quality AQ Index Pollutant
Not available.

Snow Depth

Station Depth Elevation

Earthquake Activity

City Distance Mag. Time & Date
Minimum magnitude displayed is 2.5.

Coastal Water Temperatures

Place Temperature

Stations

Nearby Weather Stations

Station Location Temp. Windchill Dew Point Humidity Wind Precip. Elev Updated Type